sensor_id;sensor_type;location;lat;lon;timestamp;pressure;altitude;pressure_sealevel;temperature;humidity
68476;BME280;55464;48.266;14.188;2023-07-31T00:01:26;97773.41;;;25.40;41.38
68476;BME280;55464;48.266;14.188;2023-07-31T00:03:51;97789.59;;;25.52;41.30
68476;BME280;55464;48.266;14.188;2023-07-31T00:06:17;97789.66;;;25.65;41.38
68476;BME280;55464;48.266;14.188;2023-07-31T00:08:42;97793.03;;;25.60;40.76
68476;BME280;55464;48.266;14.188;2023-07-31T00:11:07;97787.75;;;25.45;41.36
68476;BME280;55464;48.266;14.188;2023-07-31T00:13:33;97796.53;;;25.35;40.84
68476;BME280;55464;48.266;14.188;2023-07-31T00:15:59;97781.13;;;25.52;40.73
68476;BME280;55464;48.266;14.188;2023-07-31T00:18:24;97788.28;;;25.57;41.05
68476;BME280;55464;48.266;14.188;2023-07-31T00:20:49;97788.28;;;25.57;40.95
68476;BME280;55464;48.266;14.188;2023-07-31T00:23:15;97791.84;;;25.74;40.80
68476;BME280;55464;48.266;14.188;2023-07-31T00:25:40;97802.75;;;25.72;41.28
68476;BME280;55464;48.266;14.188;2023-07-31T00:28:05;97803.03;;;25.77;41.15
68476;BME280;55464;48.266;14.188;2023-07-31T00:30:31;97809.47;;;25.78;41.22
68476;BME280;55464;48.266;14.188;2023-07-31T00:32:56;97811.69;;;25.70;40.82
68476;BME280;55464;48.266;14.188;2023-07-31T00:35:22;97810.00;;;25.73;41.05
68476;BME280;55464;48.266;14.188;2023-07-31T00:37:47;97811.13;;;25.75;41.46
68476;BME280;55464;48.266;14.188;2023-07-31T00:40:13;97798.13;;;25.65;41.54
68476;BME280;55464;48.266;14.188;2023-07-31T00:42:39;97802.75;;;25.72;41.56
68476;BME280;55464;48.266;14.188;2023-07-31T00:45:05;97808.50;;;25.68;41.83
68476;BME280;55464;48.266;14.188;2023-07-31T00:47:30;97799.66;;;25.53;41.48
68476;BME280;55464;48.266;14.188;2023-07-31T00:49:56;97799.56;;;25.57;41.27
68476;BME280;55464;48.266;14.188;2023-07-31T00:52:21;97808.31;;;25.46;40.83
68476;BME280;55464;48.266;14.188;2023-07-31T00:54:48;97802.06;;;25.38;41.38
68476;BME280;55464;48.266;14.188;2023-07-31T00:57:13;97796.97;;;25.33;41.41
68476;BME280;55464;48.266;14.188;2023-07-31T00:59:39;97811.16;;;25.46;42.25
68476;BME280;55464;48.266;14.188;2023-07-31T01:02:05;97811.25;;;25.42;41.96
68476;BME280;55464;48.266;14.188;2023-07-31T01:04:30;97811.94;;;25.46;42.85
68476;BME280;55464;48.266;14.188;2023-07-31T01:07:06;97813.63;;;25.44;42.55
68476;BME280;55464;48.266;14.188;2023-07-31T01:09:40;97812.38;;;25.45;42.97
68476;BME280;55464;48.266;14.188;2023-07-31T01:12:09;97814.94;;;25.39;42.93
68476;BME280;55464;48.266;14.188;2023-07-31T01:14:37;97812.47;;;25.41;42.96
68476;BME280;55464;48.266;14.188;2023-07-31T01:17:03;97821.81;;;25.38;43.30
68476;BME280;55464;48.266;14.188;2023-07-31T01:19:29;97817.88;;;25.36;42.98
68476;BME280;55464;48.266;14.188;2023-07-31T01:22:12;97808.78;;;25.28;43.26
68476;BME280;55464;48.266;14.188;2023-07-31T01:24:42;97808.34;;;25.29;42.87
68476;BME280;55464;48.266;14.188;2023-07-31T01:27:23;97802.97;;;25.35;42.84
68476;BME280;55464;48.266;14.188;2023-07-31T01:29:58;97801.03;;;25.32;42.62
68476;BME280;55464;48.266;14.188;2023-07-31T01:32:28;97792.31;;;25.26;42.64
68476;BME280;55464;48.266;14.188;2023-07-31T01:34:54;97795.31;;;25.19;43.06
68476;BME280;55464;48.266;14.188;2023-07-31T01:37:20;97789.03;;;25.12;42.81
68476;BME280;55464;48.266;14.188;2023-07-31T01:39:45;97796.09;;;25.03;42.83
68476;BME280;55464;48.266;14.188;2023-07-31T01:42:10;97794.97;;;25.01;42.51
68476;BME280;55464;48.266;14.188;2023-07-31T01:44:36;97792.22;;;24.97;42.29
68476;BME280;55464;48.266;14.188;2023-07-31T01:47:01;97794.88;;;24.88;42.72
68476;BME280;55464;48.266;14.188;2023-07-31T01:49:26;97785.72;;;24.84;42.63
68476;BME280;55464;48.266;14.188;2023-07-31T01:51:52;97792.56;;;24.99;42.41
68476;BME280;55464;48.266;14.188;2023-07-31T01:54:17;97794.25;;;24.80;42.52
68476;BME280;55464;48.266;14.188;2023-07-31T01:56:43;97778.94;;;24.81;42.26
68476;BME280;55464;48.266;14.188;2023-07-31T01:59:08;97784.84;;;24.87;42.65
68476;BME280;55464;48.266;14.188;2023-07-31T02:01:33;97785.44;;;24.95;42.71
68476;BME280;55464;48.266;14.188;2023-07-31T02:03:59;97785.44;;;24.95;42.83
68476;BME280;55464;48.266;14.188;2023-07-31T02:06:24;97788.19;;;24.98;42.89
68476;BME280;55464;48.266;14.188;2023-07-31T02:08:50;97786.25;;;24.95;42.56
68476;BME280;55464;48.266;14.188;2023-07-31T02:11:15;97788.53;;;25.00;42.67
68476;BME280;55464;48.266;14.188;2023-07-31T02:13:40;97783.19;;;24.89;42.99
68476;BME280;55464;48.266;14.188;2023-07-31T02:16:06;97789.50;;;24.94;42.79
68476;BME280;55464;48.266;14.188;2023-07-31T02:18:31;97794.88;;;24.88;43.11
68476;BME280;55464;48.266;14.188;2023-07-31T02:20:56;97784.31;;;24.76;43.42
68476;BME280;55464;48.266;14.188;2023-07-31T02:23:22;97788.09;;;24.69;43.69
68476;BME280;55464;48.266;14.188;2023-07-31T02:25:47;97791.63;;;24.73;43.42
68476;BME280;55464;48.266;14.188;2023-07-31T02:28:13;97792.78;;;24.76;43.53
68476;BME280;55464;48.266;14.188;2023-07-31T02:30:38;97796.38;;;24.60;43.64
68476;BME280;55464;48.266;14.188;2023-07-31T02:33:04;97784.22;;;24.63;43.86
68476;BME280;55464;48.266;14.188;2023-07-31T02:35:29;97779.38;;;24.63;43.80
68476;BME280;55464;48.266;14.188;2023-07-31T02:37:55;97779.09;;;24.58;43.99
68476;BME280;55464;48.266;14.188;2023-07-31T02:40:20;97780.41;;;24.53;44.03
68476;BME280;55464;48.266;14.188;2023-07-31T02:42:46;97778.03;;;24.51;44.22
68476;BME280;55464;48.266;14.188;2023-07-31T02:45:11;97772.72;;;24.37;44.16
68476;BME280;55464;48.266;14.188;2023-07-31T02:47:36;97777.91;;;24.39;44.17
68476;BME280;55464;48.266;14.188;2023-07-31T02:50:03;97777.97;;;24.35;44.06
68476;BME280;55464;48.266;14.188;2023-07-31T02:52:29;97785.22;;;24.36;44.07
68476;BME280;55464;48.266;14.188;2023-07-31T02:54:54;97784.16;;;24.30;44.05
68476;BME280;55464;48.266;14.188;2023-07-31T02:57:19;97776.75;;;24.36;44.29
68476;BME280;55464;48.266;14.188;2023-07-31T02:59:45;97785.91;;;24.40;44.18
68476;BME280;55464;48.266;14.188;2023-07-31T03:02:10;97779.13;;;24.21;44.73
68476;BME280;55464;48.266;14.188;2023-07-31T03:04:36;97770.94;;;24.27;44.02
68476;BME280;55464;48.266;14.188;2023-07-31T03:07:02;97775.72;;;24.30;44.00
68476;BME280;55464;48.266;14.188;2023-07-31T03:09:27;97773.25;;;24.32;43.82
68476;BME280;55464;48.266;14.188;2023-07-31T03:11:52;97783.44;;;24.26;43.42
68476;BME280;55464;48.266;14.188;2023-07-31T03:14:18;97781.94;;;24.21;42.98
68476;BME280;55464;48.266;14.188;2023-07-31T03:16:43;97781.28;;;24.13;42.88
68476;BME280;55464;48.266;14.188;2023-07-31T03:19:08;97768.44;;;24.12;42.86
68476;BME280;55464;48.266;14.188;2023-07-31T03:21:34;97780.25;;;24.24;42.34
68476;BME280;55464;48.266;14.188;2023-07-31T03:23:59;97782.53;;;24.12;42.57
68476;BME280;55464;48.266;14.188;2023-07-31T03:26:24;97777.09;;;24.02;42.24
68476;BME280;55464;48.266;14.188;2023-07-31T03:28:50;97779.03;;;23.88;42.49
68476;BME280;55464;48.266;14.188;2023-07-31T03:31:15;97787.38;;;23.92;42.42
68476;BME280;55464;48.266;14.188;2023-07-31T03:33:40;97782.97;;;23.91;42.67
68476;BME280;55464;48.266;14.188;2023-07-31T03:36:06;97791.41;;;23.91;42.68
68476;BME280;55464;48.266;14.188;2023-07-31T03:38:33;97792.16;;;23.95;42.50
68476;BME280;55464;48.266;14.188;2023-07-31T03:40:59;97799.94;;;24.07;42.31
68476;BME280;55464;48.266;14.188;2023-07-31T03:43:24;97797.47;;;24.09;42.22
68476;BME280;55464;48.266;14.188;2023-07-31T03:45:50;97800.38;;;24.06;42.32
68476;BME280;55464;48.266;14.188;2023-07-31T03:48:15;97790.91;;;24.16;42.71
68476;BME280;55464;48.266;14.188;2023-07-31T03:50:41;97797.22;;;24.20;43.35
68476;BME280;55464;48.266;14.188;2023-07-31T03:53:07;97790.38;;;24.21;42.97
68476;BME280;55464;48.266;14.188;2023-07-31T03:55:32;97789.41;;;24.28;42.68
68476;BME280;55464;48.266;14.188;2023-07-31T03:57:57;97782.56;;;24.29;42.86
68476;BME280;55464;48.266;14.188;2023-07-31T04:00:23;97787.84;;;24.27;43.01
68476;BME280;55464;48.266;14.188;2023-07-31T04:02:48;97783.00;;;24.27;42.95
68476;BME280;55464;48.266;14.188;2023-07-31T04:05:14;97782.28;;;24.23;42.54
68476;BME280;55464;48.266;14.188;2023-07-31T04:07:39;97781.38;;;24.26;42.92
68476;BME280;55464;48.266;14.188;2023-07-31T04:10:04;97772.88;;;24.30;42.74
68476;BME280;55464;48.266;14.188;2023-07-31T04:12:30;97774.81;;;24.33;42.64
68476;BME280;55464;48.266;14.188;2023-07-31T04:14:55;97780.78;;;24.35;43.10
68476;BME280;55464;48.266;14.188;2023-07-31T04:17:21;97776.06;;;24.32;42.96
68476;BME280;55464;48.266;14.188;2023-07-31T04:19:46;97780.34;;;24.37;43.05
68476;BME280;55464;48.266;14.188;2023-07-31T04:22:11;97780.59;;;24.26;43.32
68476;BME280;55464;48.266;14.188;2023-07-31T04:24:37;97780.53;;;24.29;42.95
68476;BME280;55464;48.266;14.188;2023-07-31T04:27:02;97781.34;;;24.30;42.94
68476;BME280;55464;48.266;14.188;2023-07-31T04:29:28;97779.91;;;24.22;43.23
68476;BME280;55464;48.266;14.188;2023-07-31T04:31:53;97777.00;;;24.25;43.25
68476;BME280;55464;48.266;14.188;2023-07-31T04:34:18;97779.38;;;24.27;43.65
68476;BME280;55464;48.266;14.188;2023-07-31T04:36:44;97774.72;;;24.20;43.43
68476;BME280;55464;48.266;14.188;2023-07-31T04:39:09;97790.81;;;24.20;43.34
68476;BME280;55464;48.266;14.188;2023-07-31T04:41:34;97787.91;;;24.23;43.28
68476;BME280;55464;48.266;14.188;2023-07-31T04:44:00;97783.00;;;24.27;43.68
68476;BME280;55464;48.266;14.188;2023-07-31T04:46:26;97771.53;;;24.18;43.23
68476;BME280;55464;48.266;14.188;2023-07-31T04:48:51;97790.22;;;24.28;43.45
68476;BME280;55464;48.266;14.188;2023-07-31T04:51:16;97785.88;;;24.24;43.14
68476;BME280;55464;48.266;14.188;2023-07-31T04:53:42;97788.63;;;24.27;43.24
68476;BME280;55464;48.266;14.188;2023-07-31T04:56:08;97788.00;;;24.20;43.51
68476;BME280;55464;48.266;14.188;2023-07-31T04:58:33;97791.59;;;24.20;43.22
68476;BME280;55464;48.266;14.188;2023-07-31T05:00:58;97797.13;;;24.07;43.45
68476;BME280;55464;48.266;14.188;2023-07-31T05:03:24;97792.88;;;23.99;44.00
68476;BME280;55464;48.266;14.188;2023-07-31T05:05:49;97788.09;;;23.96;44.07
68476;BME280;55464;48.266;14.188;2023-07-31T05:08:15;97787.59;;;24.01;43.78
68476;BME280;55464;48.266;14.188;2023-07-31T05:10:42;97790.09;;;24.15;44.35
68476;BME280;55464;48.266;14.188;2023-07-31T05:13:08;97784.88;;;24.14;43.98
68476;BME280;55464;48.266;14.188;2023-07-31T05:15:33;97789.56;;;24.21;44.22
68476;BME280;55464;48.266;14.188;2023-07-31T05:17:58;97793.66;;;24.36;43.96
68476;BME280;55464;48.266;14.188;2023-07-31T05:20:24;97783.91;;;24.41;44.30
68476;BME280;55464;48.266;14.188;2023-07-31T05:22:50;97783.00;;;24.44;44.60
68476;BME280;55464;48.266;14.188;2023-07-31T05:25:16;97790.38;;;24.58;44.98
68476;BME280;55464;48.266;14.188;2023-07-31T05:27:41;97794.00;;;24.38;44.13
68476;BME280;55464;48.266;14.188;2023-07-31T05:30:07;97793.84;;;24.45;44.65
68476;BME280;55464;48.266;14.188;2023-07-31T05:32:32;97779.94;;;24.38;44.38
68476;BME280;55464;48.266;14.188;2023-07-31T05:34:58;97783.16;;;24.57;44.29
68476;BME280;55464;48.266;14.188;2023-07-31T05:37:23;97782.41;;;24.52;44.50
68476;BME280;55464;48.266;14.188;2023-07-31T05:39:49;97772.81;;;24.50;44.27
68476;BME280;55464;48.266;14.188;2023-07-31T05:42:14;97780.50;;;24.66;44.61
68476;BME280;55464;48.266;14.188;2023-07-31T05:44:40;97779.38;;;24.80;44.40
68476;BME280;55464;48.266;14.188;2023-07-31T05:47:05;97780.88;;;24.84;45.00
68476;BME280;55464;48.266;14.188;2023-07-31T05:49:31;97773.31;;;24.81;44.50
68476;BME280;55464;48.266;14.188;2023-07-31T05:51:56;97785.53;;;24.75;44.02
68476;BME280;55464;48.266;14.188;2023-07-31T05:54:21;97774.28;;;24.75;44.54
68476;BME280;55464;48.266;14.188;2023-07-31T05:56:47;97783.09;;;24.93;44.33
68476;BME280;55464;48.266;14.188;2023-07-31T05:59:12;97777.53;;;24.89;43.63
68476;BME280;55464;48.266;14.188;2023-07-31T06:01:38;97792.66;;;24.96;43.92
68476;BME280;55464;48.266;14.188;2023-07-31T06:04:04;97784.31;;;24.92;43.43
68476;BME280;55464;48.266;14.188;2023-07-31T06:06:29;97793.66;;;24.72;43.33
68476;BME280;55464;48.266;14.188;2023-07-31T06:08:55;97795.78;;;24.68;42.45
68476;BME280;55464;48.266;14.188;2023-07-31T06:11:21;97796.09;;;24.54;42.84
68476;BME280;55464;48.266;14.188;2023-07-31T06:13:46;97790.31;;;24.41;42.99
68476;BME280;55464;48.266;14.188;2023-07-31T06:16:13;97784.63;;;24.61;42.73
68476;BME280;55464;48.266;14.188;2023-07-31T06:18:39;97780.78;;;24.71;42.76
68476;BME280;55464;48.266;14.188;2023-07-31T06:21:05;97769.34;;;24.62;42.71
68476;BME280;55464;48.266;14.188;2023-07-31T06:23:30;97769.41;;;24.75;42.45
68476;BME280;55464;48.266;14.188;2023-07-31T06:25:56;97779.09;;;24.58;42.75
68476;BME280;55464;48.266;14.188;2023-07-31T06:28:21;97777.53;;;24.73;42.48
68476;BME280;55464;48.266;14.188;2023-07-31T06:30:46;97786.50;;;24.68;42.47
68476;BME280;55464;48.266;14.188;2023-07-31T06:33:12;97777.69;;;24.66;42.40
68476;BME280;55464;48.266;14.188;2023-07-31T06:35:38;97784.75;;;24.90;42.78
68476;BME280;55464;48.266;14.188;2023-07-31T06:38:03;97783.06;;;24.77;42.56
68476;BME280;55464;48.266;14.188;2023-07-31T06:40:29;97774.25;;;24.91;42.39
68476;BME280;55464;48.266;14.188;2023-07-31T06:42:55;97781.06;;;24.94;42.80
68476;BME280;55464;48.266;14.188;2023-07-31T06:45:20;97785.44;;;24.95;42.84
68476;BME280;55464;48.266;14.188;2023-07-31T06:47:47;97784.72;;;25.07;42.67
68476;BME280;55464;48.266;14.188;2023-07-31T06:50:12;97782.94;;;25.29;42.66
68476;BME280;55464;48.266;14.188;2023-07-31T06:52:37;97772.97;;;25.41;42.59
68476;BME280;55464;48.266;14.188;2023-07-31T06:55:19;97780.88;;;25.46;42.21
68476;BME280;55464;48.266;14.188;2023-07-31T06:57:46;97768.72;;;25.50;42.22
68476;BME280;55464;48.266;14.188;2023-07-31T07:00:12;97766.19;;;25.39;42.18
68476;BME280;55464;48.266;14.188;2023-07-31T07:02:37;97776.31;;;25.53;41.86
68476;BME280;55464;48.266;14.188;2023-07-31T07:05:03;97772.22;;;25.54;41.68
68476;BME280;55464;48.266;14.188;2023-07-31T07:07:28;97763.88;;;25.50;42.07
68476;BME280;55464;48.266;14.188;2023-07-31T07:09:54;97768.19;;;25.55;42.13
68476;BME280;55464;48.266;14.188;2023-07-31T07:12:19;97765.34;;;25.55;42.13
68476;BME280;55464;48.266;14.188;2023-07-31T07:14:44;97767.03;;;25.52;42.02
68476;BME280;55464;48.266;14.188;2023-07-31T07:17:13;97759.91;;;25.47;40.73
68476;BME280;55464;48.266;14.188;2023-07-31T07:19:40;97763.53;;;25.48;41.18
68476;BME280;55464;48.266;14.188;2023-07-31T07:22:06;97762.47;;;25.42;40.46
68476;BME280;55464;48.266;14.188;2023-07-31T07:24:31;97757.69;;;25.55;41.08
68476;BME280;55464;48.266;14.188;2023-07-31T07:26:56;97763.72;;;25.41;40.24
68476;BME280;55464;48.266;14.188;2023-07-31T07:29:22;97762.34;;;25.62;40.32
68476;BME280;55464;48.266;14.188;2023-07-31T07:31:47;97759.09;;;25.47;40.45
68476;BME280;55464;48.266;14.188;2023-07-31T07:34:13;97762.81;;;25.73;40.54
68476;BME280;55464;48.266;14.188;2023-07-31T07:36:38;97762.25;;;25.78;40.56
68476;BME280;55464;48.266;14.188;2023-07-31T07:39:03;97766.38;;;25.61;40.51
68476;BME280;55464;48.266;14.188;2023-07-31T07:41:29;97761.25;;;25.72;40.21
68476;BME280;55464;48.266;14.188;2023-07-31T07:43:54;97758.19;;;25.79;40.62
68476;BME280;55464;48.266;14.188;2023-07-31T07:46:20;97769.00;;;25.97;40.30
68476;BME280;55464;48.266;14.188;2023-07-31T07:48:45;97766.19;;;26.10;40.94
68476;BME280;55464;48.266;14.188;2023-07-31T07:51:10;97759.75;;;26.10;40.54
68476;BME280;55464;48.266;14.188;2023-07-31T07:53:36;97770.78;;;25.91;39.97
68476;BME280;55464;48.266;14.188;2023-07-31T07:56:01;97758.84;;;26.00;40.33
68476;BME280;55464;48.266;14.188;2023-07-31T07:58:26;97759.75;;;26.10;40.39
68476;BME280;55464;48.266;14.188;2023-07-31T08:00:52;97762.00;;;26.15;41.51
68476;BME280;55464;48.266;14.188;2023-07-31T08:03:17;97759.75;;;26.22;41.04
68476;BME280;55464;48.266;14.188;2023-07-31T08:05:43;97747.44;;;26.29;41.31
68476;BME280;55464;48.266;14.188;2023-07-31T08:08:14;97744.41;;;26.23;40.98
68476;BME280;55464;48.266;14.188;2023-07-31T08:10:40;97751.38;;;26.19;41.20
68476;BME280;55464;48.266;14.188;2023-07-31T08:13:05;97748.13;;;26.33;41.07
68476;BME280;55464;48.266;14.188;2023-07-31T08:15:31;97738.16;;;26.41;41.06
68476;BME280;55464;48.266;14.188;2023-07-31T08:17:56;97743.72;;;26.58;41.45
68476;BME280;55464;48.266;14.188;2023-07-31T08:20:21;97733.88;;;26.63;41.77
68476;BME280;55464;48.266;14.188;2023-07-31T08:22:47;97744.50;;;26.71;41.20
68476;BME280;55464;48.266;14.188;2023-07-31T08:25:12;97738.06;;;26.71;41.10
68476;BME280;55464;48.266;14.188;2023-07-31T08:27:37;97743.47;;;26.78;41.03
68476;BME280;55464;48.266;14.188;2023-07-31T08:30:03;97744.94;;;26.83;40.86
68476;BME280;55464;48.266;14.188;2023-07-31T08:32:28;97741.44;;;26.78;41.00
68476;BME280;55464;48.266;14.188;2023-07-31T08:34:54;97742.34;;;26.88;41.28
68476;BME280;55464;48.266;14.188;2023-07-31T08:37:19;97738.72;;;26.75;40.53
68476;BME280;55464;48.266;14.188;2023-07-31T08:39:45;97729.69;;;26.80;40.64
68476;BME280;55464;48.266;14.188;2023-07-31T08:42:10;97734.53;;;26.79;40.38
68476;BME280;55464;48.266;14.188;2023-07-31T08:44:36;97730.00;;;26.82;40.48
68476;BME280;55464;48.266;14.188;2023-07-31T08:47:02;97720.41;;;26.79;40.57
68476;BME280;55464;48.266;14.188;2023-07-31T08:49:29;97722.69;;;26.72;40.87
68476;BME280;55464;48.266;14.188;2023-07-31T08:51:55;97735.78;;;26.78;40.85
68476;BME280;55464;48.266;14.188;2023-07-31T08:54:23;97724.72;;;26.84;41.13
68476;BME280;55464;48.266;14.188;2023-07-31T08:56:49;97716.56;;;26.73;40.07
68476;BME280;55464;48.266;14.188;2023-07-31T08:59:15;97711.03;;;26.70;39.75
68476;BME280;55464;48.266;14.188;2023-07-31T09:01:44;97712.84;;;26.76;40.07
68476;BME280;55464;48.266;14.188;2023-07-31T09:04:14;97710.69;;;26.81;40.93
68476;BME280;55464;48.266;14.188;2023-07-31T09:06:40;97702.81;;;26.97;40.80
68476;BME280;55464;48.266;14.188;2023-07-31T09:09:07;97703.84;;;26.91;40.70
68476;BME280;55464;48.266;14.188;2023-07-31T09:11:34;97708.81;;;27.00;40.56
68476;BME280;55464;48.266;14.188;2023-07-31T09:13:59;97707.03;;;26.93;40.47
68476;BME280;55464;48.266;14.188;2023-07-31T09:16:28;97713.22;;;27.01;40.59
68476;BME280;55464;48.266;14.188;2023-07-31T09:18:56;97708.34;;;27.01;40.27
68476;BME280;55464;48.266;14.188;2023-07-31T09:21:23;97694.78;;;26.96;40.58
68476;BME280;55464;48.266;14.188;2023-07-31T09:23:49;97693.25;;;26.82;40.11
68476;BME280;55464;48.266;14.188;2023-07-31T09:26:30;97697.28;;;26.94;40.60
68476;BME280;55464;48.266;14.188;2023-07-31T09:28:56;97694.13;;;26.92;40.79
68476;BME280;55464;48.266;14.188;2023-07-31T09:31:33;97702.56;;;27.05;41.14
68476;BME280;55464;48.266;14.188;2023-07-31T09:33:59;97702.44;;;27.08;41.03
68476;BME280;55464;48.266;14.188;2023-07-31T09:36:29;97694.78;;;27.09;41.12
68476;BME280;55464;48.266;14.188;2023-07-31T09:38:54;97695.50;;;26.87;39.97
68476;BME280;55464;48.266;14.188;2023-07-31T09:41:20;97677.13;;;27.05;40.85
68476;BME280;55464;48.266;14.188;2023-07-31T09:43:53;97673.56;;;26.91;40.14
68476;BME280;55464;48.266;14.188;2023-07-31T09:46:20;97677.44;;;27.07;40.10
68476;BME280;55464;48.266;14.188;2023-07-31T09:48:46;97670.03;;;27.00;39.34
68476;BME280;55464;48.266;14.188;2023-07-31T09:51:11;97672.03;;;27.00;39.17
68476;BME280;55464;48.266;14.188;2023-07-31T09:53:37;97680.44;;;26.90;38.07
68476;BME280;55464;48.266;14.188;2023-07-31T09:56:03;97677.03;;;26.95;38.60
68476;BME280;55464;48.266;14.188;2023-07-31T09:58:29;97672.16;;;26.74;37.96
68476;BME280;55464;48.266;14.188;2023-07-31T10:00:57;97664.53;;;26.84;38.07
68476;BME280;55464;48.266;14.188;2023-07-31T10:03:24;97660.72;;;26.77;37.17
68476;BME280;55464;48.266;14.188;2023-07-31T10:05:53;97662.56;;;26.93;38.05
68476;BME280;55464;48.266;14.188;2023-07-31T10:08:23;97656.59;;;27.13;37.47
68476;BME280;55464;48.266;14.188;2023-07-31T10:10:54;97653.00;;;27.13;37.68
68476;BME280;55464;48.266;14.188;2023-07-31T10:13:22;97645.38;;;27.23;37.66
68476;BME280;55464;48.266;14.188;2023-07-31T10:15:48;97652.13;;;27.03;37.61
68476;BME280;55464;48.266;14.188;2023-07-31T10:18:14;97641.63;;;27.04;36.89
68476;BME280;55464;48.266;14.188;2023-07-31T10:20:40;97646.09;;;27.14;37.04
68476;BME280;55464;48.266;14.188;2023-07-31T10:23:06;97648.13;;;27.13;37.42
68476;BME280;55464;48.266;14.188;2023-07-31T10:25:31;97644.22;;;26.98;36.52
68476;BME280;55464;48.266;14.188;2023-07-31T10:27:58;97639.94;;;27.15;38.53
68476;BME280;55464;48.266;14.188;2023-07-31T10:30:27;97631.53;;;27.25;37.86
68476;BME280;55464;48.266;14.188;2023-07-31T10:32:54;97630.41;;;27.35;38.26
68476;BME280;55464;48.266;14.188;2023-07-31T10:35:21;97628.84;;;27.43;39.88
68476;BME280;55464;48.266;14.188;2023-07-31T10:37:47;97618.84;;;27.29;38.42
68476;BME280;55464;48.266;14.188;2023-07-31T10:40:18;97631.53;;;27.25;37.36
68476;BME280;55464;48.266;14.188;2023-07-31T10:42:53;97624.88;;;27.31;38.04
68476;BME280;55464;48.266;14.188;2023-07-31T10:45:31;97618.00;;;27.42;38.29
68476;BME280;55464;48.266;14.188;2023-07-31T10:48:03;97617.59;;;27.52;37.79
68476;BME280;55464;48.266;14.188;2023-07-31T10:50:31;97617.47;;;27.34;37.07
68476;BME280;55464;48.266;14.188;2023-07-31T10:52:58;97613.66;;;27.28;35.66
68476;BME280;55464;48.266;14.188;2023-07-31T10:55:32;97604.50;;;27.46;35.99
68476;BME280;55464;48.266;14.188;2023-07-31T11:00:31;97599.44;;;27.41;35.65
68476;BME280;55464;48.266;14.188;2023-07-31T11:02:57;97601.28;;;27.34;36.55
68476;BME280;55464;48.266;14.188;2023-07-31T11:05:44;97593.47;;;27.39;35.46
68476;BME280;55464;48.266;14.188;2023-07-31T11:08:15;97594.56;;;27.41;35.79
68476;BME280;55464;48.266;14.188;2023-07-31T11:10:42;97594.63;;;27.50;36.72
68476;BME280;55464;48.266;14.188;2023-07-31T11:13:08;97591.03;;;27.59;37.67
68476;BME280;55464;48.266;14.188;2023-07-31T11:15:33;97576.56;;;27.57;35.94
68476;BME280;55464;48.266;14.188;2023-07-31T11:18:01;97576.53;;;27.48;35.45
68476;BME280;55464;48.266;14.188;2023-07-31T11:20:33;97577.09;;;27.65;35.54
68476;BME280;55464;48.266;14.188;2023-07-31T11:23:02;97580.88;;;27.71;35.82
68476;BME280;55464;48.266;14.188;2023-07-31T11:25:31;97576.63;;;27.35;35.03
68476;BME280;55464;48.266;14.188;2023-07-31T11:28:02;97581.59;;;27.53;35.59
68476;BME280;55464;48.266;14.188;2023-07-31T11:30:27;97570.13;;;27.57;35.00
68476;BME280;55464;48.266;14.188;2023-07-31T11:32:55;97564.19;;;27.64;34.80
68476;BME280;55464;48.266;14.188;2023-07-31T11:35:20;97560.13;;;27.74;35.49
68476;BME280;55464;48.266;14.188;2023-07-31T11:37:46;97552.13;;;27.82;37.23
68476;BME280;55464;48.266;14.188;2023-07-31T11:40:11;97558.97;;;27.94;37.42
68476;BME280;55464;48.266;14.188;2023-07-31T11:42:37;97547.97;;;27.64;35.30
68476;BME280;55464;48.266;14.188;2023-07-31T11:45:07;97556.19;;;27.71;35.21
68476;BME280;55464;48.266;14.188;2023-07-31T11:47:33;97551.50;;;27.87;35.80
68476;BME280;55464;48.266;14.188;2023-07-31T11:50:07;97552.38;;;27.65;34.90
68476;BME280;55464;48.266;14.188;2023-07-31T11:52:42;97544.84;;;27.71;35.70
68476;BME280;55464;48.266;14.188;2023-07-31T11:55:09;97544.28;;;27.86;35.80
68476;BME280;55464;48.266;14.188;2023-07-31T11:57:39;97547.38;;;27.69;33.97
68476;BME280;55464;48.266;14.188;2023-07-31T12:00:09;97548.84;;;27.83;35.42
68476;BME280;55464;48.266;14.188;2023-07-31T12:02:36;97553.16;;;27.97;37.29
68476;BME280;55464;48.266;14.188;2023-07-31T12:05:04;97546.09;;;28.02;35.81
68476;BME280;55464;48.266;14.188;2023-07-31T12:10:11;97541.06;;;28.15;37.10
68476;BME280;55464;48.266;14.188;2023-07-31T12:12:36;97543.75;;;28.09;35.59
68476;BME280;55464;48.266;14.188;2023-07-31T12:15:02;97543.59;;;28.13;35.97
68476;BME280;55464;48.266;14.188;2023-07-31T12:17:28;97535.09;;;28.22;35.75
68476;BME280;55464;48.266;14.188;2023-07-31T12:19:53;97521.41;;;28.48;36.81
68476;BME280;55464;48.266;14.188;2023-07-31T12:22:20;97511.66;;;28.13;35.08
68476;BME280;55464;48.266;14.188;2023-07-31T12:24:46;97514.94;;;28.29;35.37
68476;BME280;55464;48.266;14.188;2023-07-31T12:27:12;97504.56;;;28.26;35.23
68476;BME280;55464;48.266;14.188;2023-07-31T12:29:39;97500.47;;;28.18;34.11
68476;BME280;55464;48.266;14.188;2023-07-31T12:32:19;97497.34;;;28.44;34.89
68476;BME280;55464;48.266;14.188;2023-07-31T12:34:44;97497.34;;;28.44;34.78
68476;BME280;55464;48.266;14.188;2023-07-31T12:37:09;97486.31;;;28.37;34.04
68476;BME280;55464;48.266;14.188;2023-07-31T12:39:35;97492.75;;;28.46;33.71
68476;BME280;55464;48.266;14.188;2023-07-31T12:42:00;97492.59;;;28.41;33.66
68476;BME280;55464;48.266;14.188;2023-07-31T12:44:25;97481.28;;;28.41;33.36
68476;BME280;55464;48.266;14.188;2023-07-31T12:46:51;97462.84;;;28.45;33.90
68476;BME280;55464;48.266;14.188;2023-07-31T12:49:16;97473.72;;;28.65;34.10
68476;BME280;55464;48.266;14.188;2023-07-31T12:51:41;97473.53;;;28.78;34.91